Meteo Giornale » Osservazioni meteo Italia » Cuneo-Levaldigi

ore: 14:50 - Osservazioni Meteo Cuneo-Levaldigi
Lat. 44° 32' N Lon. 7° 37' E Alt. 396 metri s.l.m.

sereno Europe/Rome

9 °C

Sereno

Temp. 24 Ore

-3 °C

10 °C

Nord

3.7 Km/h

Dew point 2 °C

Umidità 61 %

Visibilità  8 Km

Il sole sorge alle ore 07:40

Il sole tramonta alle ore 16:54

Data e Ora Cielo e Fenomeni T °C DP °C Um. % Pres. hPa Vis. km Vento km/h
Oggi h: 14:50 sereno Sereno 9 2 61 1020 8 N 3.7
Oggi h: 14:20 sereno Sereno 9 3 66 1020 8 N 5.5
Oggi h: 13:50 sereno Sereno 9 2 61 1021 8 N 5.5
Oggi h: 13:20 sereno Sereno 9 3 66 1021 7 N 3.7
Oggi h: 12:50 poco_nuvoloso Poco Nuvoloso 9 3 66 1021 7 N 3.7
Oggi h: 12:20 sereno Sereno 9 3 66 1022 8 N 5.5
Oggi h: 11:50 sereno Sereno 8 3 70 1022 9 N 5.5
Oggi h: 11:20 sereno Sereno 7 2 70 1022 10 N 3.7
Oggi h: 10:50 sereno Sereno 6 2 75 1022 10 N 3.7
Oggi h: 10:20 sereno Sereno 5 2 80 1023 10 N 1.8
Oggi h: 09:50 sereno Sereno 2 1 93 1023 10 N 5.5
Oggi h: 09:20 sereno Sereno 1 -0 93 1023 10 S/SE 7.4
Oggi h: 08:50 sereno Sereno 0 -1 92 1022 10 O/SO 11.1
Oggi h: 07:20 molto_nuvoloso Molto Nuvoloso -1 -2 92 1022 10 O/SO 9.3
Oggi h: 06:50 molto_nuvoloso Molto Nuvoloso -2 -2 100 1022 10 N 5.5
Oggi h: 06:20 sereno Sereno -2 -3 92 1022 10 S/SO 9.3
Oggi h: 05:50 molto_nuvoloso Molto Nuvoloso -1 -2 92 1022 10 N 5.5
Oggi h: 05:20 molto_nuvoloso Molto Nuvoloso 0 -1 92 1022 10 O/SO 7.4
Oggi h: 04:50 molto_nuvoloso Molto Nuvoloso -0 -1 92 1022 10 O/SO 9.3
Oggi h: 04:20 molto_nuvoloso Molto Nuvoloso -0 -1 92 1022 10 O/SO 9.3
Oggi h: 03:50 molto_nuvoloso Molto Nuvoloso -1 -1 100 1022 10 SO 11.1
Oggi h: 03:20 molto_nuvoloso Molto Nuvoloso -2 -2 100 1022 9 S/SO 9.3
Oggi h: 02:50 coperto Coperto -2 -2 100 1022 9 N 3.7
Oggi h: 02:20 molto_nuvoloso Molto Nuvoloso -2 -2 100 1022 8 N 5.5
Oggi h: 01:50 molto_nuvoloso Molto Nuvoloso -2 -2 100 1022 9 N 3.7
Oggi h: 01:20 poco_nuvoloso Poco Nuvoloso -2 -2 100 1022 9 O/SO 7.4
Oggi h: 00:50 sereno Sereno -2 -3 92 1023 10 O/SO 7.4
Oggi h: 00:20 sereno Sereno -3 -3 100 1023 10 SO 9.3
Ieri h: 23:20 sereno Sereno -0 -1 92 1023 10 O/SO 9.3
Ieri h: 20:50 sereno Sereno -1 -1 100 1023 8 O/SO 7.4
Ieri h: 20:20 sereno Sereno -0 -1 92 1023 7 SO 7.4
Ieri h: 19:50 sereno Sereno 1 -0 93 1023 6 N 5.5
Ieri h: 19:20 sereno Sereno 1 0 93 1023 7 O/SO 9.3
Ieri h: 18:50 sereno Sereno 2 1 93 1023 6 N 3.7
Ieri h: 18:20 sereno Sereno 3 2 93 1023 7 N 3.7
Ieri h: 17:50 sereno Sereno 4 2 86 1022 9 N 1.8
Ieri h: 16:50 sereno Sereno 8 3 70 1022 10 N 3.7
Ieri h: 15:50 sereno Sereno 9 3 66 1022 10 N 5.5
Ieri h: 15:20 sereno Sereno 10 2 57 1022 3 N 5.5
Ieri h: 14:50 sereno Sereno 10 2 57 1022 5 N 3.7